Time;durP1;ratioP1;P1;durP2;ratioP2;P2;SDS_P1;SDS_P2;PMS_P1;PMS_P2;Temp;Humidity;BMP_temperature;BMP_pressure;BME280_temperature;BME280_humidity;BME280_pressure;Samples;Min_cycle;Max_cycle;Signal;HPM_P1;HPM_P2
2022/11/23 00:01:37;;;;;;;5.50;4.97;;;7.20;99.90;;;;;;5062681;28;20079;-70
2022/11/23 00:04:11;;;;;;;4.80;4.30;;;7.20;99.90;;;;;;5058060;28;20071;-70
2022/11/23 00:06:36;;;;;;;4.35;3.50;;;7.20;99.90;;;;;;5055042;28;20341;-70
2022/11/23 00:09:02;;;;;;;5.50;4.65;;;7.20;99.90;;;;;;5058596;28;20036;-70
2022/11/23 00:11:28;;;;;;;4.75;4.35;;;7.20;99.90;;;;;;5034547;28;20041;-70
2022/11/23 00:13:54;;;;;;;4.55;4.00;;;7.20;99.90;;;;;;5057748;28;20044;-70
2022/11/23 00:16:28;;;;;;;5.38;4.75;;;7.20;99.90;;;;;;5062258;28;20048;-70
2022/11/23 00:18:56;;;;;;;4.40;3.75;;;7.30;99.90;;;;;;5059542;28;20044;-71
2022/11/23 00:21:22;;;;;;;4.30;3.90;;;7.30;99.90;;;;;;5039425;28;20044;-71
2022/11/23 00:23:48;;;;;;;4.15;3.70;;;7.30;99.90;;;;;;5057068;28;20709;-70
2022/11/23 00:26:16;;;;;;;4.07;3.55;;;7.30;99.90;;;;;;5044824;28;20044;-70
2022/11/23 00:28:42;;;;;;;3.88;3.45;;;7.30;99.90;;;;;;5061250;28;20063;-70
2022/11/23 00:31:16;;;;;;;3.40;3.10;;;7.40;99.90;;;;;;5061260;28;20040;-70
2022/11/23 00:33:42;;;;;;;3.75;3.00;;;7.40;99.90;;;;;;5054554;28;20037;-69
2022/11/23 00:36:12;;;;;;;5.47;4.20;;;7.40;99.90;;;;;;5059829;28;20036;-70
2022/11/23 00:38:38;;;;;;;5.07;3.85;;;7.40;99.90;;;;;;5062331;28;20051;-70
2022/11/23 00:41:07;;;;;;;5.25;4.35;;;7.50;99.90;;;;;;5030502;28;20064;-70
2022/11/23 00:43:33;;;;;;;3.78;3.38;;;7.50;99.90;;;;;;5058796;28;20047;-70
2022/11/23 00:46:16;;;;;;;3.63;3.20;;;7.50;99.90;;;;;;5060674;28;20041;-70
2022/11/23 00:48:47;;;;;;;3.40;2.97;;;7.50;99.90;;;;;;5061279;28;20499;-70
2022/11/23 00:51:16;;;;;;;4.65;3.50;;;7.60;99.90;;;;;;5040108;28;20479;-70
2022/11/23 00:53:42;;;;;;;4.35;3.78;;;7.50;99.90;;;;;;5061504;28;20461;-70
2022/11/23 00:56:08;;;;;;;;;;;7.60;99.90;;;;;;5058061;28;20033;-71
2022/11/23 00:58:36;;;;;;;4.53;3.85;;;7.60;99.90;;;;;;5058715;28;19989;-71
2022/11/23 01:01:10;;;;;;;4.95;4.45;;;7.60;99.90;;;;;;5053762;28;20088;-71
2022/11/23 01:03:38;;;;;;;4.75;3.60;;;7.60;99.90;;;;;;5062221;28;20067;-70
2022/11/23 01:06:10;;;;;;;5.97;4.60;;;7.60;99.90;;;;;;5055110;28;20032;-71
2022/11/23 01:08:36;;;;;;;5.07;3.58;;;7.70;99.90;;;;;;5039055;28;20037;-70
2022/11/23 01:11:05;;;;;;;4.43;4.03;;;7.70;99.90;;;;;;5043266;28;20102;-70
2022/11/23 01:13:31;;;;;;;3.88;3.42;;;7.70;99.90;;;;;;5060647;28;20044;-71
2022/11/23 01:15:57;;;;;;;4.53;3.70;;;7.70;99.90;;;;;;5053897;28;20040;-70
2022/11/23 01:18:23;;;;;;;4.32;3.20;;;7.70;99.90;;;;;;5054644;28;20554;-70
2022/11/23 01:20:49;;;;;;;;;;;7.70;99.90;;;;;;5055118;28;20048;-70
2022/11/23 01:23:14;;;;;;;3.10;2.75;;;7.70;99.90;;;;;;5061553;28;19985;-70
2022/11/23 01:25:40;;;;;;;4.15;3.22;;;7.70;99.90;;;;;;5043879;28;20097;-72
2022/11/23 01:28:06;;;;;;;4.28;3.50;;;7.80;99.90;;;;;;5047199;28;20403;-70
2022/11/23 01:30:33;;;;;;;4.07;3.00;;;7.80;99.90;;;;;;5040416;28;20037;-70
2022/11/23 01:32:59;;;;;;;3.50;2.80;;;7.80;99.90;;;;;;5041130;28;20112;-70
2022/11/23 01:35:25;;;;;;;3.63;2.92;;;7.70;99.90;;;;;;5058879;28;20531;-71
2022/11/23 01:37:50;;;;;;;6.00;3.58;;;7.80;99.90;;;;;;5062037;28;20047;-70
2022/11/23 01:40:16;;;;;;;3.90;3.25;;;7.80;99.90;;;;;;5059519;28;20463;-70
2022/11/23 01:42:56;;;;;;;3.67;3.20;;;7.80;99.90;;;;;;5038343;28;20046;-70
2022/11/23 01:45:51;;;;;;;3.63;3.00;;;7.80;99.90;;;;;;5059997;28;20076;-70
2022/11/23 01:48:25;;;;;;;4.63;3.60;;;7.80;99.90;;;;;;5064039;28;20134;-69
2022/11/23 01:50:52;;;;;;;5.55;3.88;;;7.80;99.90;;;;;;5061544;28;20206;-70
2022/11/23 01:53:19;;;;;;;4.05;3.08;;;7.90;99.90;;;;;;5056912;28;20107;-70
2022/11/23 01:55:46;;;;;;;;;;;7.90;99.90;;;;;;5045066;28;20728;-70
2022/11/23 01:58:17;;;;;;;4.55;3.42;;;7.90;99.90;;;;;;5062564;28;19966;-70
2022/11/23 02:00:44;;;;;;;4.35;3.47;;;7.90;99.90;;;;;;5063362;28;20468;-70
2022/11/23 02:03:10;;;;;;;4.22;3.55;;;7.90;99.90;;;;;;5061792;28;20210;-70
2022/11/23 02:06:00;;;;;;;3.70;3.20;;;7.90;99.90;;;;;;5024511;28;20110;-70
2022/11/23 02:08:27;;;;;;;5.13;3.42;;;7.90;99.90;;;;;;5064477;28;20059;-70
2022/11/23 02:10:57;;;;;;;3.80;3.08;;;7.90;99.90;;;;;;5054473;28;20085;-69
2022/11/23 02:13:24;;;;;;;5.70;3.83;;;7.90;99.90;;;;;;5058914;28;20048;-70
2022/11/23 02:15:51;;;;;;;5.32;3.70;;;7.90;99.90;;;;;;5042998;28;20041;-70
2022/11/23 02:18:22;;;;;;;5.38;3.30;;;7.90;99.90;;;;;;5056347;28;20036;-70
2022/11/23 02:20:48;;;;;;;4.03;3.63;;;7.80;99.90;;;;;;5050943;28;20139;-70
2022/11/23 02:23:35;;;;;;;5.10;3.35;;;7.90;99.90;;;;;;5061788;28;20048;-70
2022/11/23 02:26:26;;;;;;;4.47;3.00;;;7.90;99.90;;;;;;5058002;28;20486;-71
2022/11/23 02:29:19;;;;;;;5.82;4.05;;;7.90;99.90;;;;;;5059879;28;20056;-70
2022/11/23 02:31:45;;;;;;;4.85;3.47;;;7.80;99.90;;;;;;5061346;28;20051;-70
2022/11/23 02:34:11;;;;;;;4.03;3.20;;;7.90;99.90;;;;;;5059535;28;20033;-70
2022/11/23 02:36:38;;;;;;;4.40;3.20;;;7.90;99.90;;;;;;5038866;28;20068;-70
2022/11/23 02:39:31;;;;;;;3.40;3.00;;;7.90;99.90;;;;;;5056830;28;20412;-70
2022/11/23 02:41:58;;;;;;;4.80;2.95;;;7.90;99.90;;;;;;5039794;28;20044;-70
2022/11/23 02:44:23;;;;;;;3.08;2.63;;;7.90;99.90;;;;;;5041068;28;20124;-71
2022/11/23 02:46:50;;;;;;;4.72;3.47;;;7.90;99.90;;;;;;5059129;28;20044;-70
2022/11/23 02:49:16;;;;;;;4.38;3.42;;;7.90;99.90;;;;;;5042512;28;20475;-70
2022/11/23 02:51:41;;;;;;;5.13;3.50;;;7.90;99.90;;;;;;5041788;28;20089;-70
2022/11/23 02:54:07;;;;;;;4.70;3.22;;;7.90;99.90;;;;;;5056524;28;20067;-70
2022/11/23 02:56:33;;;;;;;5.82;3.70;;;7.90;99.90;;;;;;5060628;28;20059;-70
2022/11/23 02:58:59;;;;;;;3.85;3.00;;;8.00;99.90;;;;;;5035984;28;20041;-70
2022/11/23 03:01:24;;;;;;;4.35;3.08;;;7.90;99.90;;;;;;5029489;28;20396;-70
2022/11/23 03:03:50;;;;;;;4.15;3.00;;;7.90;99.90;;;;;;5056410;28;20040;-70
2022/11/23 03:06:16;;;;;;;3.40;2.85;;;8.00;99.90;;;;;;5043969;28;20048;-71
2022/11/23 03:08:41;;;;;;;2.85;2.55;;;7.90;99.90;;;;;;5061857;28;20039;-69
2022/11/23 03:11:07;;;;;;;3.45;2.70;;;8.00;99.90;;;;;;5063250;28;20037;-70
2022/11/23 03:13:33;;;;;;;2.90;2.40;;;8.00;99.90;;;;;;5040982;28;20032;-70
2022/11/23 03:15:59;;;;;;;2.90;2.60;;;8.00;99.90;;;;;;5043975;28;20380;-70
2022/11/23 03:18:25;;;;;;;3.58;3.25;;;8.00;99.90;;;;;;5058796;28;20067;-69
2022/11/23 03:20:50;;;;;;;4.57;3.03;;;8.00;99.90;;;;;;5055148;28;20504;-70
2022/11/23 03:23:16;;;;;;;5.07;3.80;;;8.00;99.90;;;;;;5053769;28;20169;-70
2022/11/23 03:25:42;;;;;;;4.65;3.53;;;7.90;99.90;;;;;;5057599;28;20109;-70
2022/11/23 03:28:07;;;;;;;3.92;3.40;;;8.00;99.90;;;;;;5059340;28;20060;-70
2022/11/23 03:30:33;;;;;;;4.03;3.42;;;8.00;99.90;;;;;;5060585;28;20159;-70
2022/11/23 03:32:59;;;;;;;5.13;4.10;;;8.00;99.90;;;;;;5058124;28;20496;-70
2022/11/23 03:35:24;;;;;;;4.07;3.42;;;8.00;99.90;;;;;;5041383;28;20424;-70
2022/11/23 03:37:50;;;;;;;5.78;4.05;;;8.00;99.90;;;;;;5056611;28;20037;-70
2022/11/23 03:40:16;;;;;;;5.05;3.70;;;8.00;99.90;;;;;;5054805;28;20052;-70
2022/11/23 03:42:42;;;;;;;4.43;3.33;;;8.00;99.90;;;;;;5055412;28;20321;-70
2022/11/23 03:45:08;;;;;;;2.90;2.60;;;7.90;99.90;;;;;;5056555;28;20093;-69
2022/11/23 03:47:35;;;;;;;4.13;3.47;;;7.90;99.90;;;;;;5054936;28;20040;-70
2022/11/23 03:50:00;;;;;;;4.40;2.70;;;7.90;99.90;;;;;;5057535;28;20507;-70
2022/11/23 03:52:26;;;;;;;3.60;2.85;;;7.90;99.90;;;;;;5040541;28;20064;-70
2022/11/23 03:54:52;;;;;;;4.35;3.13;;;7.90;99.90;;;;;;5057632;28;20045;-69
2022/11/23 03:57:17;;;;;;;4.07;3.38;;;7.90;99.90;;;;;;5058691;28;20319;-70
2022/11/23 03:59:43;;;;;;;5.35;3.97;;;8.00;99.90;;;;;;5056375;28;20033;-70
2022/11/23 04:02:08;;;;;;;6.32;4.93;;;7.90;99.90;;;;;;5040013;28;20051;-70
2022/11/23 04:04:35;;;;;;;4.63;3.83;;;7.90;99.90;;;;;;5041540;28;20032;-70
2022/11/23 04:07:01;;;;;;;5.00;3.95;;;7.90;99.90;;;;;;5054418;28;20061;-70
2022/11/23 04:09:26;;;;;;;3.80;3.22;;;7.90;99.90;;;;;;5028096;28;20040;-69
2022/11/23 04:11:52;;;;;;;5.43;4.22;;;7.90;99.90;;;;;;5055573;28;20045;-70
2022/11/23 04:14:18;;;;;;;5.75;5.07;;;8.00;99.90;;;;;;5057671;28;20041;-70
2022/11/23 04:16:43;;;;;;;5.28;4.30;;;8.00;99.90;;;;;;5059374;28;20123;-70
2022/11/23 04:19:09;;;;;;;6.80;4.50;;;7.90;99.90;;;;;;5056612;28;20040;-71
2022/11/23 04:21:35;;;;;;;5.15;4.13;;;7.90;99.90;;;;;;5050285;28;20055;-70
2022/11/23 04:24:00;;;;;;;6.65;4.90;;;7.90;99.90;;;;;;5059042;28;20087;-70
2022/11/23 04:26:26;;;;;;;5.80;4.50;;;7.90;99.90;;;;;;5038268;28;20036;-70
2022/11/23 04:28:52;;;;;;;5.63;4.65;;;8.00;99.90;;;;;;5056229;28;20051;-70
2022/11/23 04:31:17;;;;;;;5.50;4.38;;;8.00;99.90;;;;;;5054751;28;20150;-71
2022/11/23 04:33:43;;;;;;;3.85;3.40;;;8.00;99.90;;;;;;5057690;28;20170;-70
2022/11/23 04:36:09;;;;;;;4.82;4.05;;;7.90;99.90;;;;;;5054882;28;20075;-70
2022/11/23 04:38:34;;;;;;;7.03;5.20;;;8.00;99.90;;;;;;5059480;28;20048;-70
2022/11/23 04:41:00;;;;;;;5.20;4.70;;;8.00;99.90;;;;;;5058013;28;20062;-70
2022/11/23 04:43:25;;;;;;;4.22;3.47;;;8.00;99.90;;;;;;5052587;28;20071;-70
2022/11/23 04:45:51;;;;;;;7.90;5.70;;;8.00;99.90;;;;;;5052990;28;20128;-70
2022/11/23 04:48:17;;;;;;;6.53;5.47;;;8.00;99.90;;;;;;5055943;28;20041;-70
2022/11/23 04:50:42;;;;;;;7.05;5.10;;;7.90;99.90;;;;;;5039128;28;20488;-71
2022/11/23 04:53:08;;;;;;;7.45;5.45;;;7.90;99.90;;;;;;5058998;28;20098;-71
2022/11/23 04:55:34;;;;;;;6.97;6.18;;;7.90;99.90;;;;;;5052128;28;20479;-71
2022/11/23 04:58:00;;;;;;;7.28;6.07;;;8.00;99.90;;;;;;5055136;28;20033;-71
2022/11/23 05:00:27;;;;;;;7.40;5.68;;;7.90;99.90;;;;;;5059651;28;20056;-71
2022/11/23 05:02:53;;;;;;;8.75;6.97;;;7.90;99.90;;;;;;5079658;28;20131;-71
2022/11/23 05:05:19;;;;;;;7.68;6.55;;;7.90;99.90;;;;;;5064514;28;20112;-71
2022/11/23 05:07:44;;;;;;;6.90;5.90;;;7.90;99.90;;;;;;5062247;28;20497;-71
2022/11/23 05:10:10;;;;;;;8.32;6.38;;;7.90;99.90;;;;;;5061011;28;20052;-71
2022/11/23 05:12:36;;;;;;;6.75;5.57;;;7.90;99.90;;;;;;5058795;28;20043;-72
2022/11/23 05:15:03;;;;;;;7.15;5.45;;;7.90;99.90;;;;;;5039010;28;20082;-72
2022/11/23 05:17:33;;;;;;;7.43;6.30;;;7.80;99.90;;;;;;5059478;28;20090;-74
2022/11/23 05:19:58;;;;;;;9.80;7.25;;;7.80;99.90;;;;;;5058033;28;20071;-75
2022/11/23 05:22:24;;;;;;;9.07;7.28;;;7.90;99.90;;;;;;5062029;28;20074;-75
2022/11/23 05:24:50;;;;;;;9.15;7.00;;;7.90;99.90;;;;;;5061671;28;20068;-75
2022/11/23 05:27:15;;;;;;;9.68;7.38;;;7.90;99.90;;;;;;5040317;28;20049;-74
2022/11/23 05:29:41;;;;;;;8.00;7.07;;;7.90;99.90;;;;;;5057696;28;20048;-75
2022/11/23 05:32:07;;;;;;;9.05;7.10;;;7.90;99.90;;;;;;5058468;28;20037;-74
2022/11/23 05:34:33;;;;;;;10.55;8.70;;;8.00;99.90;;;;;;5057149;28;20094;-75
2022/11/23 05:36:58;;;;;;;13.07;9.35;;;7.90;99.90;;;;;;5061408;28;20040;-74
2022/11/23 05:39:25;;;;;;;10.73;8.25;;;8.00;99.90;;;;;;5062525;28;20044;-75
2022/11/23 05:41:50;;;;;;;;;;;8.00;99.90;;;;;;5058927;28;20048;-75
2022/11/23 05:44:16;;;;;;;10.63;8.35;;;7.90;99.90;;;;;;5058009;28;19920;-75
2022/11/23 05:46:42;;;;;;;11.27;8.60;;;8.00;99.90;;;;;;5046289;28;20411;-75
2022/11/23 05:49:09;;;;;;;12.23;9.63;;;8.00;99.90;;;;;;5041140;28;20444;-74
2022/11/23 05:51:34;;;;;;;10.85;9.25;;;8.10;99.90;;;;;;5060524;28;20047;-75
2022/11/23 05:54:01;;;;;;;11.25;9.38;;;8.00;99.90;;;;;;5045958;28;20040;-75
2022/11/23 05:56:26;;;;;;;10.32;9.05;;;8.10;99.90;;;;;;5056870;28;20072;-75
2022/11/23 05:58:55;;;;;;;12.32;9.57;;;8.10;99.90;;;;;;5063906;28;20087;-76
2022/11/23 06:01:21;;;;;;;12.57;10.27;;;8.10;99.90;;;;;;5053893;28;20127;-75
2022/11/23 06:03:49;;;;;;;9.85;8.18;;;8.10;99.90;;;;;;5062696;28;20051;-76
2022/11/23 06:06:15;;;;;;;11.98;8.50;;;8.10;99.90;;;;;;5058991;28;20381;-75
2022/11/23 06:08:41;;;;;;;13.85;11.02;;;8.10;99.90;;;;;;5063753;28;20042;-75
2022/11/23 06:11:06;;;;;;;15.60;12.43;;;8.10;99.90;;;;;;5062192;28;20401;-75
2022/11/23 06:13:32;;;;;;;13.52;11.40;;;8.10;99.90;;;;;;5062858;28;20106;-75
2022/11/23 06:15:58;;;;;;;12.10;9.43;;;8.10;99.90;;;;;;5055271;28;20144;-77
2022/11/23 06:18:23;;;;;;;12.02;9.52;;;8.10;99.90;;;;;;5038487;28;20122;-76
2022/11/23 06:20:49;;;;;;;14.10;11.20;;;8.20;99.90;;;;;;5041585;28;20546;-75
2022/11/23 06:23:15;;;;;;;11.68;9.80;;;8.10;99.90;;;;;;5057599;28;20141;-75
2022/11/23 06:25:40;;;;;;;11.80;9.27;;;8.10;99.90;;;;;;5035842;28;20151;-76
2022/11/23 06:28:06;;;;;;;10.30;8.35;;;8.20;99.90;;;;;;5036247;28;20044;-75
2022/11/23 06:30:32;;;;;;;13.18;9.95;;;8.10;99.90;;;;;;5032699;28;20060;-75
2022/11/23 06:33:02;;;;;;;10.18;8.57;;;8.10;99.90;;;;;;5050161;28;20040;-75
2022/11/23 06:35:27;;;;;;;10.48;8.30;;;8.10;99.90;;;;;;5054311;28;20043;-75
2022/11/23 06:37:53;;;;;;;9.27;7.53;;;8.00;99.90;;;;;;5050713;28;20041;-74
2022/11/23 06:40:19;;;;;;;12.05;9.00;;;8.00;99.90;;;;;;5025647;28;20134;-71
2022/11/23 06:42:46;;;;;;;11.02;8.20;;;8.00;99.90;;;;;;5036226;28;20041;-70
2022/11/23 06:45:11;;;;;;;;;;;8.00;99.90;;;;;;5040305;28;20043;-71
2022/11/23 06:47:37;;;;;;;13.60;9.07;;;8.00;99.90;;;;;;5057526;28;19920;-71
2022/11/23 06:50:04;;;;;;;11.23;8.77;;;8.00;99.90;;;;;;5052417;28;20041;-74
2022/11/23 06:52:30;;;;;;;8.30;6.72;;;8.00;99.90;;;;;;5053042;28;20053;-74
2022/11/23 06:54:55;;;;;;;9.57;7.10;;;8.00;99.90;;;;;;5054360;28;20049;-70
2022/11/23 06:57:21;;;;;;;10.10;7.28;;;8.00;99.90;;;;;;5042584;28;20499;-70
2022/11/23 06:59:47;;;;;;;9.13;6.82;;;8.00;99.90;;;;;;5031698;28;20621;-70
2022/11/23 07:02:13;;;;;;;9.05;6.75;;;8.00;99.90;;;;;;5060841;28;20052;-75
2022/11/23 07:04:39;;;;;;;6.40;5.50;;;8.00;99.90;;;;;;5056810;28;20392;-75
2022/11/23 07:07:07;;;;;;;11.75;7.78;;;8.00;99.90;;;;;;5040533;28;20045;-75
2022/11/23 07:09:32;;;;;;;7.80;6.40;;;8.00;99.90;;;;;;5046171;28;20059;-75
2022/11/23 07:11:58;;;;;;;7.85;6.20;;;7.90;99.90;;;;;;5060786;28;20444;-75
2022/11/23 07:14:24;;;;;;;8.55;6.72;;;7.90;99.90;;;;;;5045830;28;20051;-75
2022/11/23 07:16:50;;;;;;;8.23;6.03;;;7.90;99.90;;;;;;5059581;28;20150;-75
2022/11/23 07:19:16;;;;;;;7.90;5.90;;;7.90;99.90;;;;;;5057780;28;20052;-76
2022/11/23 07:21:43;;;;;;;6.90;5.70;;;7.90;99.90;;;;;;5052421;28;20044;-75
2022/11/23 07:24:09;;;;;;;9.18;5.57;;;7.90;99.90;;;;;;5055210;28;20083;-76
2022/11/23 07:26:34;;;;;;;8.90;6.38;;;7.90;99.90;;;;;;5040170;28;20067;-75
2022/11/23 07:29:00;;;;;;;8.02;5.60;;;7.90;99.90;;;;;;5055889;28;20135;-75
2022/11/23 07:31:26;;;;;;;8.48;5.45;;;7.90;99.90;;;;;;5051352;28;20506;-75
2022/11/23 07:33:52;;;;;;;8.68;6.05;;;7.90;99.90;;;;;;5049101;28;20051;-76
2022/11/23 07:36:18;;;;;;;6.93;5.35;;;7.80;99.90;;;;;;5049398;28;20052;-75
2022/11/23 07:38:43;;;;;;;8.55;5.40;;;7.90;99.90;;;;;;5032925;28;20041;-75
2022/11/23 07:41:09;;;;;;;7.68;5.20;;;7.90;99.90;;;;;;5049913;28;20464;-74
2022/11/23 07:43:35;;;;;;;7.40;4.82;;;7.90;99.90;;;;;;5035310;28;20076;-76
2022/11/23 07:46:01;;;;;;;7.32;4.63;;;7.90;99.90;;;;;;5064868;28;20045;-75
2022/11/23 07:48:26;;;;;;;10.55;5.18;;;7.80;99.90;;;;;;5062767;28;20051;-74
2022/11/23 07:50:53;;;;;;;5.95;4.18;;;7.90;99.90;;;;;;5034807;28;20456;-74
2022/11/23 07:53:19;;;;;;;7.50;5.22;;;7.90;99.90;;;;;;5061970;28;20116;-75
2022/11/23 07:55:44;;;;;;;6.65;4.82;;;7.90;99.90;;;;;;5052727;28;20036;-75
2022/11/23 07:58:10;;;;;;;5.85;3.75;;;7.80;99.90;;;;;;5043721;28;20565;-75
2022/11/23 08:00:37;;;;;;;6.47;3.90;;;7.90;99.90;;;;;;5041590;28;20463;-73
2022/11/23 08:03:03;;;;;;;;;;;7.90;99.90;;;;;;5053583;28;20152;-75
2022/11/23 08:05:31;;;;;;;8.23;3.90;;;7.90;99.90;;;;;;5043160;28;20024;-75
2022/11/23 08:08:01;;;;;;;5.43;3.85;;;7.90;99.90;;;;;;5040503;28;20033;-75
2022/11/23 08:10:29;;;;;;;5.95;3.80;;;7.90;99.90;;;;;;5051041;28;20037;-75
2022/11/23 08:13:03;;;;;;;6.57;3.72;;;7.90;99.90;;;;;;5045633;28;20491;-75
2022/11/23 08:15:30;;;;;;;5.05;3.10;;;7.90;99.90;;;;;;5068863;28;20131;-75
2022/11/23 08:18:01;;;;;;;5.28;3.38;;;7.90;99.90;;;;;;5026591;28;20055;-75
2022/11/23 08:20:28;;;;;;;6.20;3.38;;;7.90;99.90;;;;;;5053799;28;20079;-75
2022/11/23 08:22:55;;;;;;;4.28;3.28;;;8.00;99.90;;;;;;5062924;28;20071;-75
2022/11/23 08:25:25;;;;;;;7.30;4.05;;;8.00;99.90;;;;;;5053951;28;20075;-75
2022/11/23 08:27:58;;;;;;;5.80;3.53;;;8.00;99.90;;;;;;5066792;28;20041;-75
2022/11/23 08:30:25;;;;;;;7.20;3.83;;;8.10;99.90;;;;;;5049898;28;20079;-75
2022/11/23 08:32:51;;;;;;;8.07;3.90;;;8.10;99.90;;;;;;5050618;28;20043;-75
2022/11/23 08:35:16;;;;;;;4.13;3.05;;;8.10;99.90;;;;;;5070915;28;20127;-75
2022/11/23 08:37:42;;;;;;;5.32;3.28;;;8.10;99.90;;;;;;5058322;28;20045;-73
2022/11/23 08:40:08;;;;;;;4.95;3.25;;;8.10;99.90;;;;;;5052271;28;20063;-75
2022/11/23 08:42:34;;;;;;;;;;;8.10;99.90;;;;;;5053930;28;20492;-75
2022/11/23 08:45:02;;;;;;;5.78;3.40;;;8.10;99.90;;;;;;5069717;28;19920;-74
2022/11/23 08:47:28;;;;;;;6.05;3.10;;;8.10;99.90;;;;;;5053440;28;20041;-75
2022/11/23 08:49:53;;;;;;;6.05;3.17;;;8.20;99.90;;;;;;5055680;28;20041;-75
2022/11/23 08:52:19;;;;;;;6.15;3.17;;;8.10;99.90;;;;;;5057272;28;20041;-76
2022/11/23 08:54:45;;;;;;;5.65;2.97;;;8.20;99.90;;;;;;5053751;28;20041;-75
2022/11/23 08:57:10;;;;;;;5.30;3.20;;;8.20;99.90;;;;;;5052915;28;20036;-75
2022/11/23 08:59:36;;;;;;;8.35;3.05;;;8.20;99.90;;;;;;5049532;28;20137;-75
2022/11/23 09:02:02;;;;;;;3.53;2.63;;;8.20;99.90;;;;;;5058662;28;20059;-75
2022/11/23 09:04:29;;;;;;;4.18;2.50;;;8.30;99.90;;;;;;5061836;28;20503;-74
2022/11/23 09:06:56;;;;;;;5.40;2.80;;;8.30;99.90;;;;;;5057056;28;20056;-75
2022/11/23 09:09:21;;;;;;;;;;;8.30;99.90;;;;;;5061483;28;20361;-75
2022/11/23 09:11:47;;;;;;;3.38;2.22;;;8.40;99.90;;;;;;5053616;28;20504;-75
2022/11/23 09:14:13;;;;;;;4.82;3.13;;;8.40;99.90;;;;;;5055289;28;20132;-75
2022/11/23 09:16:39;;;;;;;5.20;2.65;;;8.40;99.90;;;;;;5036134;28;20492;-75
2022/11/23 09:19:06;;;;;;;4.80;2.50;;;8.50;99.90;;;;;;5052563;28;20044;-74
2022/11/23 09:21:34;;;;;;;6.80;2.90;;;8.40;99.90;;;;;;5062669;28;21016;-74
2022/11/23 09:24:01;;;;;;;4.90;2.35;;;8.50;99.90;;;;;;5057624;28;20434;-75
2022/11/23 09:26:26;;;;;;;6.05;2.72;;;8.50;99.90;;;;;;5063927;28;20040;-75
2022/11/23 09:28:52;;;;;;;6.53;2.72;;;8.50;99.90;;;;;;5052637;28;20060;-74
2022/11/23 09:31:18;;;;;;;5.20;2.30;;;8.60;99.90;;;;;;5053930;28;20060;-75
2022/11/23 09:33:44;;;;;;;9.55;3.33;;;8.60;99.90;;;;;;5059221;28;20060;-76
2022/11/23 09:36:09;;;;;;;8.48;3.50;;;8.70;99.90;;;;;;5042823;28;20131;-75
2022/11/23 09:38:35;;;;;;;5.60;2.83;;;8.70;99.90;;;;;;5054042;28;20495;-75
2022/11/23 09:41:19;;;;;;;8.80;3.55;;;8.80;99.90;;;;;;5052683;28;20055;-74
2022/11/23 09:44:04;;;;;;;7.75;3.30;;;8.80;99.90;;;;;;5051429;28;20055;-75
2022/11/23 09:46:41;;;;;;;7.40;3.55;;;8.90;99.90;;;;;;5042241;28;20231;-75
2022/11/23 09:49:17;;;;;;;9.90;3.20;;;8.90;99.90;;;;;;5050710;28;20139;-74
2022/11/23 09:51:43;;;;;;;9.98;3.75;;;8.90;99.90;;;;;;5057085;28;20049;-74
2022/11/23 09:54:22;;;;;;;9.55;2.95;;;8.90;99.90;;;;;;5058707;28;20387;-74
2022/11/23 09:56:51;;;;;;;7.10;3.00;;;8.90;99.90;;;;;;5054971;28;20126;-74
2022/11/23 09:59:38;;;;;;;10.77;3.67;;;8.90;99.90;;;;;;5046140;28;20048;-75
2022/11/23 10:02:04;;;;;;;6.32;3.10;;;8.90;99.90;;;;;;5063920;28;20384;-74
2022/11/23 10:04:34;;;;;;;5.95;3.03;;;8.90;99.90;;;;;;5060544;28;20047;-75
2022/11/23 10:07:22;;;;;;;7.88;2.70;;;8.90;99.90;;;;;;5060751;28;20114;-75
2022/11/23 10:10:12;;;;;;;8.98;2.90;;;8.90;99.90;;;;;;5044642;28;20617;-76
2022/11/23 10:13:00;;;;;;;8.82;3.17;;;8.90;99.90;;;;;;5059604;28;20032;-75
2022/11/23 10:15:36;;;;;;;5.40;2.38;;;8.90;99.90;;;;;;5057299;28;20101;-74
2022/11/23 10:18:38;;;;;;;8.00;3.20;;;8.90;99.90;;;;;;5053399;28;20056;-75
2022/11/23 10:21:36;;;;;;;9.38;2.90;;;8.90;99.90;;;;;;5035862;28;20144;-74
2022/11/23 10:24:07;;;;;;;;;;;8.90;99.90;;;;;;5054577;28;20102;-74
2022/11/23 10:26:37;;;;;;;7.65;3.20;;;8.90;99.90;;;;;;5053992;28;19929;-75
2022/11/23 10:29:31;;;;;;;8.73;3.00;;;9.00;99.90;;;;;;5059098;28;20037;-75
2022/11/23 10:31:58;;;;;;;7.25;2.97;;;8.90;99.90;;;;;;5056074;28;20056;-75
2022/11/23 10:34:58;;;;;;;6.05;2.70;;;9.00;99.90;;;;;;5055704;28;20052;-74
2022/11/23 10:37:23;;;;;;;8.52;2.83;;;9.00;99.90;;;;;;5068725;28;20158;-75
2022/11/23 10:39:49;;;;;;;11.20;3.55;;;9.00;99.90;;;;;;5054397;28;20041;-74
2022/11/23 10:42:41;;;;;;;5.43;2.80;;;9.00;99.90;;;;;;5050646;28;20048;-75
2022/11/23 10:45:18;;;;;;;8.77;3.40;;;9.00;99.90;;;;;;5050654;28;20072;-75
2022/11/23 10:47:54;;;;;;;9.50;3.80;;;8.90;99.90;;;;;;5059324;28;20036;-75
2022/11/23 10:50:23;;;;;;;8.43;2.70;;;8.90;99.90;;;;;;5057598;28;20044;-75
2022/11/23 10:53:22;;;;;;;8.90;2.90;;;8.90;99.90;;;;;;5060206;28;20491;-75
2022/11/23 10:55:57;;;;;;;9.23;2.75;;;8.90;99.90;;;;;;5049877;28;20091;-75
2022/11/23 10:58:30;;;;;;;9.10;2.88;;;8.90;99.90;;;;;;5051323;28;20041;-75
2022/11/23 11:01:01;;;;;;;5.32;2.17;;;8.90;99.90;;;;;;5051856;28;20049;-75
2022/11/23 11:03:32;;;;;;;5.53;2.17;;;8.90;99.90;;;;;;5057497;28;20070;-75
2022/11/23 11:05:58;;;;;;;4.75;2.08;;;8.90;99.90;;;;;;5061391;28;20040;-75
2022/11/23 11:08:30;;;;;;;5.22;1.90;;;9.00;99.90;;;;;;5059527;28;20036;-75
2022/11/23 11:11:01;;;;;;;6.78;2.28;;;9.00;99.90;;;;;;5055990;28;20048;-75
2022/11/23 11:13:33;;;;;;;5.43;1.90;;;9.10;99.90;;;;;;5053944;28;20041;-75
2022/11/23 11:16:04;;;;;;;3.33;1.60;;;9.20;99.90;;;;;;5059623;28;20069;-75
2022/11/23 11:18:35;;;;;;;6.88;2.10;;;9.20;99.90;;;;;;5039643;28;20130;-75
2022/11/23 11:21:06;;;;;;;9.18;2.83;;;9.30;99.90;;;;;;5055310;28;20044;-75
2022/11/23 11:23:37;;;;;;;6.15;2.50;;;9.40;99.90;;;;;;5058822;28;20051;-75
2022/11/23 11:26:20;;;;;;;7.88;2.55;;;9.40;99.90;;;;;;5055155;28;20391;-75
2022/11/23 11:28:48;;;;;;;7.28;2.30;;;9.80;99.90;;;;;;5038878;28;20569;-76
2022/11/23 11:31:42;;;;;;;8.15;2.10;;;10.20;99.90;;;;;;5064343;28;20408;-75
2022/11/23 11:34:50;;;;;;;7.78;1.98;;;10.50;99.90;;;;;;5054037;28;20381;-76
2022/11/23 11:37:38;;;;;;;5.00;1.98;;;10.50;99.90;;;;;;5032362;28;20063;-76
2022/11/23 11:40:24;;;;;;;7.47;2.20;;;10.50;99.90;;;;;;5055183;28;20171;-75
2022/11/23 11:43:01;;;;;;;7.82;2.03;;;10.50;99.90;;;;;;5049676;28;20072;-75
2022/11/23 11:45:34;;;;;;;5.53;1.90;;;10.70;99.90;;;;;;5034904;28;20396;-75
2022/11/23 11:48:08;;;;;;;7.13;1.90;;;10.80;99.90;;;;;;5062890;28;20086;-75
2022/11/23 11:50:49;;;;;;;7.97;1.95;;;10.50;99.90;;;;;;5050393;28;20504;-75
2022/11/23 11:53:21;;;;;;;7.35;1.92;;;10.20;99.90;;;;;;5059941;28;20037;-76
2022/11/23 11:56:05;;;;;;;8.02;1.80;;;10.20;99.90;;;;;;5039699;28;20052;-75
2022/11/23 11:58:34;;;;;;;9.00;1.77;;;10.40;99.90;;;;;;5056814;28;20044;-76
2022/11/23 12:01:26;;;;;;;7.40;2.00;;;10.70;99.90;;;;;;5061278;28;20048;-76
2022/11/23 12:04:00;;;;;;;7.47;1.80;;;10.90;99.90;;;;;;5049282;28;20052;-76
2022/11/23 12:06:42;;;;;;;6.85;1.70;;;11.10;99.90;;;;;;5066081;28;20558;-77
2022/11/23 12:09:21;;;;;;;7.63;1.88;;;11.20;99.90;;;;;;5042131;28;20040;-77
2022/11/23 12:11:47;;;;;;;5.03;1.52;;;11.30;99.90;;;;;;5049935;28;20044;-76
2022/11/23 12:14:14;;;;;;;8.48;2.20;;;11.40;99.90;;;;;;5033011;28;20510;-76
2022/11/23 12:16:59;;;;;;;6.75;1.83;;;11.50;99.90;;;;;;5065211;28;20048;-76
2022/11/23 12:19:25;;;;;;;6.15;1.80;;;11.60;99.90;;;;;;5066738;28;20113;-75
2022/11/23 12:21:53;;;;;;;6.22;1.70;;;11.60;99.90;;;;;;5069995;28;20483;-77
2022/11/23 12:24:34;;;;;;;8.00;1.83;;;11.60;99.90;;;;;;5055454;28;20048;-76
2022/11/23 12:27:35;;;;;;;5.97;1.38;;;11.70;99.90;;;;;;5069571;28;20052;-76
2022/11/23 12:30:20;;;;;;;5.95;1.50;;;11.60;99.90;;;;;;5060614;28;20450;-76
2022/11/23 12:33:17;;;;;;;6.68;2.15;;;11.60;99.90;;;;;;5067436;28;20094;-77
2022/11/23 12:36:11;;;;;;;5.30;1.58;;;11.70;99.90;;;;;;5037154;28;20484;-75
2022/11/23 12:39:00;;;;;;;6.10;1.77;;;11.60;99.90;;;;;;5057033;28;20063;-75
2022/11/23 12:41:49;;;;;;;7.85;2.10;;;11.60;99.90;;;;;;5052869;28;20048;-74
2022/11/23 12:44:15;;;;;;;6.65;1.90;;;11.60;99.90;;;;;;5047999;28;20048;-75
2022/11/23 12:47:05;;;;;;;5.90;1.70;;;11.60;99.90;;;;;;5061288;28;20392;-75
2022/11/23 12:49:46;;;;;;;5.53;1.77;;;11.60;99.90;;;;;;5053204;28;20069;-75
2022/11/23 12:52:36;;;;;;;8.23;2.08;;;11.70;99.90;;;;;;5041114;28;20033;-75
2022/11/23 12:55:20;;;;;;;7.22;1.60;;;11.70;99.90;;;;;;5055554;28;20428;-76
2022/11/23 12:57:55;;;;;;;6.88;1.67;;;11.60;99.90;;;;;;5048992;28;20111;-73
2022/11/23 13:00:22;;;;;;;9.25;2.35;;;11.60;99.90;;;;;;5058878;28;20036;-75
2022/11/23 13:02:59;;;;;;;7.45;1.77;;;11.60;99.90;;;;;;5051917;28;20047;-75
2022/11/23 13:05:31;;;;;;;7.55;1.65;;;11.50;99.90;;;;;;5051948;28;20131;-77
2022/11/23 13:08:34;;;;;;;7.60;1.60;;;11.50;99.90;;;;;;5068837;28;20040;-75
2022/11/23 13:11:08;;;;;;;5.80;1.73;;;11.60;99.90;;;;;;5068860;28;20493;-75
2022/11/23 13:13:54;;;;;;;7.68;1.60;;;11.70;99.90;;;;;;5069295;28;20123;-75